Time;durP1;ratioP1;P1;durP2;ratioP2;P2;SDS_P1;SDS_P2;PMS_P1;PMS_P2;Temp;Humidity;BMP_temperature;BMP_pressure;BME280_temperature;BME280_humidity;BME280_pressure;Samples;Min_cycle;Max_cycle;Signal;HPM_P1;HPM_P2
2021/10/01 00:01:42;;;;;;;3.58;2.17;;;;;;;;;;6112984;29;20027;-87
2021/10/01 00:04:42;;;;;;;4.90;2.45;;;6.60;99.90;;;;;;6113609;29;20034;-87
2021/10/01 00:07:43;;;;;;;7.70;2.50;;;;;;;;;;6113830;29;20828;-87
2021/10/01 00:10:44;;;;;;;4.20;2.03;;;6.40;99.90;;;;;;6114467;29;20673;-85
2021/10/01 00:13:45;;;;;;;3.95;2.40;;;;;;;;;;6098581;29;20454;-86
2021/10/01 00:16:46;;;;;;;4.35;2.55;;;6.50;99.90;;;;;;6114059;29;20363;-87
2021/10/01 00:19:47;;;;;;;5.90;2.30;;;;;;;;;;6114057;29;20035;-86
2021/10/01 00:22:48;;;;;;;3.53;2.35;;;;;;;;;;6114005;29;20027;-86
2021/10/01 00:25:48;;;;;;;4.28;2.40;;;6.40;99.90;;;;;;6113491;29;20140;-87
2021/10/01 00:28:49;;;;;;;5.45;2.55;;;6.20;99.90;;;;;;6113681;29;20023;-86
2021/10/01 00:31:50;;;;;;;3.28;2.17;;;6.60;99.90;;;;;;6114711;29;20136;-85
2021/10/01 00:34:52;;;;;;;3.88;1.98;;;;;;;;;;6117496;29;20031;-85
2021/10/01 00:37:53;;;;;;;2.80;2.25;;;;;;;;;;6118093;29;20029;-86
2021/10/01 00:40:53;;;;;;;3.03;2.28;;;6.40;99.90;;;;;;6118006;29;20066;-87
2021/10/01 00:43:55;;;;;;;6.03;2.38;;;;;;;;;;6118417;29;20031;-86
2021/10/01 00:46:56;;;;;;;4.40;2.33;;;6.50;99.90;;;;;;6118002;29;20022;-86
2021/10/01 00:49:57;;;;;;;4.95;2.65;;;6.50;99.90;;;;;;6117892;29;20453;-86
2021/10/01 00:52:58;;;;;;;2.40;2.17;;;6.50;99.90;;;;;;6101563;29;20110;-86
2021/10/01 00:55:58;;;;;;;3.33;2.50;;;6.70;99.90;;;;;;6101541;29;20085;-85
2021/10/01 00:58:59;;;;;;;2.83;2.28;;;6.40;99.90;;;;;;6101698;29;20035;-85
2021/10/01 01:02:00;;;;;;;8.43;2.28;;;6.50;99.90;;;;;;6101404;29;20027;-85
2021/10/01 01:05:01;;;;;;;3.25;2.33;;;;;;;;;;6117213;29;20371;-86
2021/10/01 01:08:06;;;;;;;5.45;2.35;;;6.40;99.90;;;;;;6117434;29;20450;-84
2021/10/01 01:11:14;;;;;;;4.53;2.20;;;6.30;99.90;;;;;;6102225;29;20037;-86
2021/10/01 01:14:17;;;;;;;2.97;2.13;;;6.30;99.90;;;;;;6117601;29;20023;-85
2021/10/01 01:17:33;;;;;;;5.68;2.30;;;6.00;99.90;;;;;;6117277;29;20039;-85
2021/10/01 01:20:50;;;;;;;3.90;2.28;;;5.90;99.90;;;;;;6117947;29;20051;-85
2021/10/01 01:23:51;;;;;;;4.35;2.30;;;;;;;;;;6102773;29;20395;-86
2021/10/01 01:27:10;;;;;;;3.75;2.20;;;6.00;99.90;;;;;;6150045;29;20051;-85
2021/10/01 01:30:20;;;;;;;4.78;2.53;;;5.90;99.90;;;;;;6132774;29;20027;-85
2021/10/01 01:33:22;;;;;;;3.28;2.20;;;6.10;99.90;;;;;;6116567;29;20425;-85
2021/10/01 01:36:23;;;;;;;3.97;2.95;;;;;;;;;;6116452;29;20039;-86
2021/10/01 01:39:24;;;;;;;2.60;2.33;;;6.10;99.90;;;;;;6116823;29;20031;-86
2021/10/01 01:42:25;;;;;;;2.83;2.20;;;;;;;;;;6100763;28;20042;-86
2021/10/01 01:45:25;;;;;;;4.35;2.17;;;6.20;99.90;;;;;;6132188;29;20105;-86
2021/10/01 01:48:26;;;;;;;2.38;1.92;;;;;;;;;;6116616;29;20042;-86
2021/10/01 01:51:27;;;;;;;4.00;2.15;;;;;;;;;;6116384;29;20406;-85
2021/10/01 01:54:28;;;;;;;2.85;2.20;;;6.20;99.90;;;;;;6117236;29;20054;-87
2021/10/01 01:57:29;;;;;;;4.25;2.13;;;;;;;;;;6116343;29;20138;-86
2021/10/01 02:00:30;;;;;;;2.75;1.92;;;;;;;;;;6116491;29;20742;-86
2021/10/01 02:03:31;;;;;;;2.40;1.95;;;6.00;99.90;;;;;;6116406;29;20074;-85
2021/10/01 02:06:33;;;;;;;4.15;2.10;;;;;;;;;;6116027;29;20130;-85
2021/10/01 02:09:34;;;;;;;2.42;2.08;;;;;;;;;;6115705;29;20121;-86
2021/10/01 02:12:35;;;;;;;3.38;1.92;;;;;;;;;;6115622;29;20023;-86
2021/10/01 02:15:35;;;;;;;2.10;1.80;;;6.10;99.90;;;;;;6115764;29;20031;-85
2021/10/01 02:18:37;;;;;;;1.88;1.63;;;;;;;;;;6100176;29;20481;-86
2021/10/01 02:21:37;;;;;;;2.90;2.20;;;6.20;99.90;;;;;;6116108;29;20027;-87
2021/10/01 02:24:38;;;;;;;2.78;1.90;;;6.20;99.90;;;;;;6116183;29;20046;-87
2021/10/01 02:27:43;;;;;;;6.05;2.13;;;6.30;99.90;;;;;;6115565;29;20117;-87
2021/10/01 02:30:44;;;;;;;3.03;2.10;;;;;;;;;;6115779;29;20041;-85
2021/10/01 02:33:45;;;;;;;4.35;2.10;;;6.00;99.90;;;;;;6131138;29;20031;-85
2021/10/01 02:36:46;;;;;;;2.30;2.10;;;;;;;;;;6115343;29;20090;-86
2021/10/01 02:39:49;;;;;;;2.25;2.05;;;6.10;99.90;;;;;;6115790;29;20070;-86
2021/10/01 02:42:50;;;;;;;2.58;2.10;;;6.00;99.90;;;;;;6116097;29;20352;-87
2021/10/01 02:45:51;;;;;;;4.40;2.10;;;;;;;;;;6099649;29;20110;-86
2021/10/01 02:48:51;;;;;;;4.40;2.30;;;6.20;99.90;;;;;;6115211;29;20059;-87
2021/10/01 02:51:56;;;;;;;2.20;2.00;;;6.10;99.90;;;;;;6114835;29;20351;-86
2021/10/01 02:55:07;;;;;;;4.65;2.08;;;6.20;99.90;;;;;;6098697;29;20031;-85
2021/10/01 02:58:26;;;;;;;2.83;2.25;;;6.20;99.90;;;;;;6115347;29;20027;-85
2021/10/01 03:01:27;;;;;;;4.85;2.05;;;6.00;99.90;;;;;;6116583;29;20125;-86
2021/10/01 03:04:27;;;;;;;2.75;1.92;;;6.10;99.90;;;;;;6114767;29;20520;-86
2021/10/01 03:07:28;;;;;;;5.75;2.70;;;6.10;99.90;;;;;;6114663;29;20036;-84
2021/10/01 03:10:29;;;;;;;2.00;1.90;;;;;;;;;;6098764;29;20418;-86
2021/10/01 03:13:30;;;;;;;11.40;4.68;;;6.30;99.90;;;;;;6114463;29;20102;-86
2021/10/01 03:16:31;;;;;;;8.02;4.10;;;8.60;99.90;;;;;;6098692;29;20110;-85
2021/10/01 03:19:33;;;;;;;3.70;2.67;;;6.40;99.90;;;;;;6098915;29;20031;-85
2021/10/01 03:22:34;;;;;;;3.30;2.00;;;;;;;;;;6114337;29;20062;-85
2021/10/01 03:25:34;;;;;;;4.85;3.13;;;6.00;99.90;;;;;;6114330;29;20054;-86
2021/10/01 03:28:36;;;;;;;3.85;2.38;;;6.20;99.90;;;;;;6114492;29;20023;-85
2021/10/01 03:31:37;;;;;;;3.10;2.60;;;;;;;;;;6098347;29;20070;-86
2021/10/01 03:34:38;;;;;;;5.85;3.10;;;6.10;99.90;;;;;;6114262;29;20055;-86
2021/10/01 03:37:39;;;;;;;3.20;2.90;;;6.20;99.90;;;;;;6082440;29;20081;-85
2021/10/01 03:40:43;;;;;;;5.15;2.90;;;;;;;;;;6113821;29;20373;-85
2021/10/01 03:43:44;;;;;;;5.72;2.30;;;;;;;;;;6114460;29;20027;-86
2021/10/01 03:46:48;;;;;;;3.67;2.13;;;;;;;;;;6113760;29;20128;-85
2021/10/01 03:49:49;;;;;;;3.97;2.33;;;;;;;;;;6130295;29;20033;-85
2021/10/01 03:52:50;;;;;;;3.90;2.20;;;;;;;;;;6113733;29;20061;-86
2021/10/01 03:55:51;;;;;;;2.03;1.92;;;;;;;;;;6113961;29;20035;-86
2021/10/01 03:58:52;;;;;;;2.30;2.10;;;;;;;;;;6113768;29;20034;-86
2021/10/01 04:01:53;;;;;;;3.78;2.42;;;;;;;;;;6113905;29;20031;-86
2021/10/01 04:04:54;;;;;;;4.72;2.50;;;;;;;;;;6113217;29;20046;-86
2021/10/01 04:07:55;;;;;;;2.17;1.92;;;6.30;99.90;;;;;;6117140;29;20110;-84
2021/10/01 04:10:56;;;;;;;4.25;2.50;;;;;;;;;;6102870;29;20038;-84
2021/10/01 04:13:57;;;;;;;2.53;2.33;;;6.10;99.90;;;;;;6118442;29;20055;-85
2021/10/01 04:16:58;;;;;;;4.28;2.78;;;;;;;;;;6118700;29;20406;-85
2021/10/01 04:19:59;;;;;;;2.85;2.40;;;6.00;99.90;;;;;;6118469;29;20023;-85
2021/10/01 04:23:00;;;;;;;3.05;2.60;;;;;;;;;;6118236;29;20050;-85
2021/10/01 04:26:00;;;;;;;7.63;4.65;;;5.70;99.90;;;;;;6134060;29;20062;-85
2021/10/01 04:29:01;;;;;;;5.68;3.70;;;6.80;99.90;;;;;;6102848;29;20122;-86
2021/10/01 04:32:04;;;;;;;3.15;2.42;;;6.50;99.90;;;;;;6097490;29;20035;-84
2021/10/01 04:35:08;;;;;;;5.68;3.53;;;5.90;99.90;;;;;;6117645;29;20035;-81
2021/10/01 04:38:09;;;;;;;4.32;2.70;;;5.50;99.90;;;;;;6117707;29;20133;-83
2021/10/01 04:41:10;;;;;;;5.88;4.07;;;;;;;;;;6116598;29;20215;-82
2021/10/01 04:44:11;;;;;;;5.93;3.50;;;;;;;;;;6117506;29;20023;-82
2021/10/01 04:47:11;;;;;;;9.35;3.72;;;5.70;99.90;;;;;;6133033;29;20033;-80
2021/10/01 04:50:12;;;;;;;3.65;2.88;;;5.40;99.90;;;;;;6150389;29;20035;-79
2021/10/01 04:53:13;;;;;;;2.70;2.38;;;5.40;99.90;;;;;;6115916;29;20031;-83
2021/10/01 04:56:14;;;;;;;4.55;2.67;;;5.70;99.90;;;;;;6116971;29;20047;-83
2021/10/01 04:59:15;;;;;;;3.40;2.92;;;5.50;99.90;;;;;;6117560;29;20023;-81
2021/10/01 05:02:16;;;;;;;4.18;3.10;;;;;;;;;;6101666;29;20078;-83
2021/10/01 05:05:17;;;;;;;5.53;3.20;;;;;;;;;;6133172;29;20714;-85
2021/10/01 05:08:18;;;;;;;4.95;2.53;;;;;;;;;;6117583;29;20023;-82
2021/10/01 05:11:18;;;;;;;5.28;3.08;;;5.80;99.90;;;;;;6133412;29;20039;-82
2021/10/01 05:14:19;;;;;;;4.80;2.40;;;;;;;;;;6114446;29;20453;-82
2021/10/01 05:17:22;;;;;;;6.18;2.50;;;5.70;99.90;;;;;;6132262;28;20118;-82
2021/10/01 05:20:23;;;;;;;4.70;2.60;;;5.70;99.90;;;;;;6117154;29;20058;-84
2021/10/01 05:23:23;;;;;;;3.80;2.38;;;6.30;99.90;;;;;;6116672;29;20031;-82
2021/10/01 05:26:24;;;;;;;4.80;2.60;;;7.30;99.90;;;;;;6100599;29;20130;-82
2021/10/01 05:29:25;;;;;;;4.40;2.55;;;6.30;99.90;;;;;;6132030;29;20032;-83
2021/10/01 05:32:25;;;;;;;4.70;2.83;;;6.30;99.90;;;;;;6115025;29;20062;-86
2021/10/01 05:35:26;;;;;;;7.38;3.50;;;6.00;99.90;;;;;;6114675;29;20031;-84
2021/10/01 05:38:29;;;;;;;6.05;4.30;;;6.10;99.90;;;;;;6089933;29;20063;-84
2021/10/01 05:41:30;;;;;;;5.43;3.58;;;5.90;99.90;;;;;;6116947;29;20027;-83
2021/10/01 05:44:34;;;;;;;8.45;3.08;;;;;;;;;;6117224;29;20065;-87
2021/10/01 05:47:37;;;;;;;4.68;3.50;;;6.10;99.90;;;;;;6117608;29;20366;-88
2021/10/01 05:50:41;;;;;;;10.70;4.65;;;6.40;99.90;;;;;;6117181;29;20023;-88
2021/10/01 05:56:42;;;;;;;6.03;4.90;;;6.10;99.90;;;;;;6115480;29;20027;-85
2021/10/01 05:59:45;;;;;;;7.60;5.35;;;;;;;;;;6099314;29;20043;-85
2021/10/01 06:02:46;;;;;;;10.23;6.68;;;;;;;;;;6115162;29;20027;-84
2021/10/01 06:05:46;;;;;;;8.25;5.05;;;7.10;99.90;;;;;;6115947;29;20477;-87
2021/10/01 06:08:47;;;;;;;8.05;5.00;;;;;;;;;;6116346;29;20067;-85
2021/10/01 06:11:49;;;;;;;5.07;3.65;;;8.00;99.90;;;;;;6115988;29;20027;-85
2021/10/01 06:14:50;;;;;;;8.83;4.20;;;8.60;99.90;;;;;;6116272;29;20024;-87
2021/10/01 06:17:50;;;;;;;7.68;5.78;;;8.60;99.90;;;;;;6099717;29;20036;-85
2021/10/01 06:20:51;;;;;;;13.43;8.63;;;;;;;;;;6116122;29;20023;-84
2021/10/01 06:23:52;;;;;;;7.53;4.00;;;9.10;99.90;;;;;;6115670;29;20019;-84
2021/10/01 06:26:53;;;;;;;6.43;3.50;;;9.20;99.90;;;;;;6099861;29;20090;-85
2021/10/01 06:29:54;;;;;;;6.90;3.90;;;9.50;99.90;;;;;;6114851;29;20474;-85
2021/10/01 06:32:57;;;;;;;5.13;3.37;;;;;;;;;;6100126;29;20480;-85
2021/10/01 06:35:58;;;;;;;5.45;2.80;;;10.00;99.90;;;;;;6131942;29;20054;-86
2021/10/01 06:38:59;;;;;;;4.50;3.28;;;10.50;99.90;;;;;;6099479;29;20528;-86
2021/10/01 06:41:59;;;;;;;4.50;2.88;;;11.60;99.90;;;;;;6115615;29;20031;-85
2021/10/01 06:45:03;;;;;;;4.20;3.00;;;11.80;99.90;;;;;;6115424;29;20031;-85
2021/10/01 06:51:24;;;;;;;3.85;2.53;;;12.20;99.90;;;;;;6115156;29;20031;-85
2021/10/01 08:20:31;;;;;;;4.40;4.00;;;21.40;76.80;;;;;;6118590;29;20476;-85
2021/10/01 08:23:32;;;;;;;3.88;2.95;;;21.60;76.70;;;;;;6113118;29;20038;-84
2021/10/01 08:26:33;;;;;;;2.90;2.38;;;22.20;74.80;;;;;;6097444;29;20052;-85
2021/10/01 08:29:34;;;;;;;6.38;2.75;;;22.40;73.90;;;;;;6113070;29;20035;-84
2021/10/01 08:32:35;;;;;;;3.90;2.58;;;22.80;72.70;;;;;;6097884;29;20023;-84
2021/10/01 08:35:35;;;;;;;6.20;2.78;;;23.40;89.20;;;;;;6097610;29;20039;-83
2021/10/01 08:38:36;;;;;;;4.65;2.80;;;23.50;74.80;;;;;;6097751;29;20517;-84
2021/10/01 08:41:38;;;;;;;3.75;2.72;;;23.60;73.40;;;;;;6113641;29;20450;-85
2021/10/01 08:44:38;;;;;;;;;;;23.80;71.20;;;;;;6113559;29;20035;-85
2021/10/01 08:47:40;;;;;;;2.95;2.33;;;23.90;71.20;;;;;;6113222;29;20355;-84
2021/10/01 08:50:40;;;;;;;6.30;2.85;;;24.30;68.80;;;;;;6113181;29;20028;-84
2021/10/01 08:53:41;;;;;;;4.38;2.90;;;24.60;69.40;;;;;;6115711;29;20389;-86
2021/10/01 08:56:42;;;;;;;5.60;2.95;;;24.90;84.50;;;;;;6102141;29;20086;-85
2021/10/01 08:59:43;;;;;;;6.95;2.60;;;;;;;;;;6117558;29;20027;-84
2021/10/01 09:02:43;;;;;;;6.47;3.10;;;24.60;85.10;;;;;;6117206;29;20019;-84
2021/10/01 09:05:44;;;;;;;3.13;2.83;;;25.30;89.10;;;;;;6101525;29;20393;-84
2021/10/01 09:08:56;;;;;;;3.90;2.85;;;25.20;91.30;;;;;;6117326;29;20028;-85
2021/10/01 09:11:59;;;;;;;4.53;2.72;;;25.30;74.10;;;;;;6117470;29;20078;-84
2021/10/01 09:15:01;;;;;;;4.25;3.10;;;;;;;;;;6101551;29;20037;-85
2021/10/01 09:18:01;;;;;;;3.33;2.70;;;25.40;71.60;;;;;;6132923;29;20027;-84
2021/10/01 09:21:13;;;;;;;3.05;2.75;;;25.70;64.50;;;;;;6101361;29;20133;-84
2021/10/01 09:24:18;;;;;;;3.10;2.45;;;25.90;63.00;;;;;;6116982;29;20046;-84
2021/10/01 09:27:33;;;;;;;3.83;2.40;;;26.40;59.10;;;;;;6116485;29;20047;-84
2021/10/01 09:30:46;;;;;;;2.58;2.20;;;26.40;56.40;;;;;;6100724;29;20118;-85
2021/10/01 09:33:47;;;;;;;3.38;2.60;;;26.20;53.10;;;;;;6117366;29;20027;-85
2021/10/01 09:37:01;;;;;;;3.30;2.37;;;26.20;58.30;;;;;;6101035;29;20075;-84
2021/10/01 09:40:02;;;;;;;2.78;2.20;;;26.60;64.20;;;;;;6117592;29;20274;-84
2021/10/01 09:43:03;;;;;;;3.10;2.05;;;26.40;55.50;;;;;;6116315;29;20462;-86
2021/10/01 09:46:08;;;;;;;2.57;2.20;;;26.40;55.90;;;;;;6116648;29;20034;-85
2021/10/01 09:49:09;;;;;;;6.20;2.40;;;26.10;57.40;;;;;;6116908;29;20041;-85
2021/10/01 09:52:12;;;;;;;2.50;2.30;;;26.20;56.90;;;;;;6116917;29;20027;-84
2021/10/01 09:55:14;;;;;;;3.17;2.40;;;26.20;57.10;;;;;;6116489;29;20450;-85
2021/10/01 09:58:16;;;;;;;2.22;1.95;;;26.10;57.50;;;;;;6085855;29;20075;-85
2021/10/01 10:01:17;;;;;;;3.42;2.38;;;25.90;59.40;;;;;;6116750;29;20039;-84
2021/10/01 10:04:17;;;;;;;3.40;2.17;;;25.80;59.00;;;;;;6099345;29;20035;-85
2021/10/01 10:07:23;;;;;;;2.77;2.03;;;25.80;59.40;;;;;;6115572;29;20433;-86
2021/10/01 10:10:24;;;;;;;3.42;2.50;;;25.90;59.30;;;;;;6115884;29;20165;-84
2021/10/01 10:13:44;;;;;;;3.03;2.30;;;26.00;59.50;;;;;;6115859;29;20050;-85
2021/10/01 10:16:45;;;;;;;3.95;2.55;;;26.10;60.00;;;;;;6131513;29;20050;-85
2021/10/01 10:19:46;;;;;;;4.83;2.67;;;26.20;60.50;;;;;;6115429;29;20031;-86
2021/10/01 10:22:46;;;;;;;4.47;2.70;;;26.30;59.60;;;;;;6115657;29;20030;-85
2021/10/01 10:25:47;;;;;;;5.00;2.67;;;26.10;59.30;;;;;;6115542;29;20047;-86
2021/10/01 10:28:47;;;;;;;4.57;2.47;;;26.10;59.60;;;;;;6115492;29;20034;-86
2021/10/01 10:31:48;;;;;;;5.93;2.83;;;26.10;59.70;;;;;;6115383;29;20033;-85
2021/10/01 10:34:51;;;;;;;4.93;2.50;;;26.00;60.30;;;;;;6115040;29;20452;-84
2021/10/01 10:37:53;;;;;;;5.75;2.60;;;26.00;59.70;;;;;;6099915;29;20381;-84
2021/10/01 10:40:54;;;;;;;3.28;2.70;;;26.10;60.00;;;;;;6115081;29;20382;-85
2021/10/01 10:43:55;;;;;;;4.23;2.37;;;26.10;60.90;;;;;;6099656;29;20019;-85
2021/10/01 10:46:55;;;;;;;7.03;2.72;;;26.20;60.10;;;;;;6099433;29;20804;-85
2021/10/01 10:50:35;;;;;;;3.40;2.57;;;26.30;61.10;;;;;;6099595;29;20027;-85
2021/10/01 10:53:39;;;;;;;3.92;2.50;;;26.30;59.80;;;;;;6110706;29;20027;-84
2021/10/01 10:56:39;;;;;;;4.90;2.50;;;26.20;62.80;;;;;;6115033;29;20122;-85
2021/10/01 10:59:40;;;;;;;2.73;2.37;;;26.20;60.50;;;;;;6114675;29;20033;-83
2021/10/01 11:02:44;;;;;;;5.60;2.50;;;26.10;61.30;;;;;;6114832;29;20042;-85
2021/10/01 11:05:45;;;;;;;2.28;1.83;;;26.10;61.00;;;;;;6099211;29;20043;-84
2021/10/01 11:08:51;;;;;;;;;;;25.80;61.60;;;;;;6114846;29;20470;-85
2021/10/01 11:11:57;;;;;;;6.53;2.55;;;25.80;61.30;;;;;;6115445;29;19924;-87
2021/10/01 11:15:16;;;;;;;3.45;2.40;;;25.70;63.70;;;;;;6114737;28;20031;-85
2021/10/01 11:18:18;;;;;;;3.53;2.08;;;25.80;61.10;;;;;;6114332;29;20414;-84
2021/10/01 11:21:27;;;;;;;2.47;2.25;;;25.80;60.00;;;;;;6098896;29;20027;-85
2021/10/01 11:24:28;;;;;;;3.40;2.42;;;25.60;60.80;;;;;;6128079;29;20110;-86
2021/10/01 11:27:29;;;;;;;4.10;2.50;;;25.70;59.50;;;;;;6111626;29;20481;-86
2021/10/01 11:30:29;;;;;;;3.10;2.30;;;25.60;60.70;;;;;;6112591;29;20141;-85
2021/10/01 11:33:30;;;;;;;4.43;2.47;;;25.60;59.80;;;;;;6097568;29;20019;-85
2021/10/01 11:36:31;;;;;;;3.47;2.53;;;25.40;58.90;;;;;;6113183;29;20121;-84
2021/10/01 11:39:35;;;;;;;3.60;2.60;;;25.40;61.60;;;;;;6112101;29;20019;-83
2021/10/01 11:42:43;;;;;;;5.97;2.60;;;25.60;61.10;;;;;;6099031;29;20105;-85
2021/10/01 11:45:44;;;;;;;4.10;2.63;;;25.80;62.00;;;;;;6114086;29;20153;-83
2021/10/01 11:48:44;;;;;;;2.80;2.20;;;26.00;61.20;;;;;;6098437;29;20027;-86
2021/10/01 11:52:01;;;;;;;3.50;2.60;;;25.90;83.00;;;;;;6114140;29;20038;-85
2021/10/01 11:55:03;;;;;;;5.07;2.85;;;25.80;68.30;;;;;;6113278;29;20492;-86
2021/10/01 11:58:17;;;;;;;3.60;2.80;;;25.80;65.80;;;;;;6103110;29;20145;-85
2021/10/01 12:01:18;;;;;;;4.47;2.75;;;;;;;;;;6115716;29;20034;-86
2021/10/01 12:04:27;;;;;;;3.40;2.90;;;25.80;67.90;;;;;;6114958;29;20043;-87
2021/10/01 12:07:28;;;;;;;4.15;2.88;;;;;;;;;;6098561;29;20481;-85
2021/10/01 12:10:31;;;;;;;5.65;4.63;;;25.70;65.90;;;;;;6113526;29;20067;-85
2021/10/01 12:13:32;;;;;;;5.07;3.80;;;25.90;61.30;;;;;;6114067;29;20040;-88
2021/10/01 12:16:33;;;;;;;6.47;3.35;;;25.80;62.60;;;;;;6113998;29;20094;-83
2021/10/01 12:19:34;;;;;;;5.77;3.23;;;25.80;66.30;;;;;;6107998;29;20058;-86
2021/10/01 12:22:36;;;;;;;3.80;3.00;;;25.70;66.30;;;;;;6113557;29;20663;-83
2021/10/01 12:25:36;;;;;;;;;;;25.70;66.30;;;;;;6098635;29;20287;-85
2021/10/01 12:28:37;;;;;;;6.07;4.60;;;;;;;;;;6116580;29;19910;-85
2021/10/01 12:31:43;;;;;;;5.47;4.50;;;25.20;61.60;;;;;;6118146;29;20027;-83
2021/10/01 12:34:58;;;;;;;6.55;4.20;;;25.10;65.50;;;;;;6118207;29;20026;-86
2021/10/01 12:37:59;;;;;;;6.05;4.70;;;24.90;66.90;;;;;;6102634;29;20098;-83
2021/10/01 12:41:16;;;;;;;6.87;4.80;;;24.80;69.00;;;;;;6117812;29;20028;-82
2021/10/01 12:44:17;;;;;;;5.28;4.78;;;24.60;65.50;;;;;;6118569;29;20102;-83
2021/10/01 12:47:19;;;;;;;5.90;5.27;;;24.20;66.90;;;;;;6102178;29;20078;-84
2021/10/01 12:50:31;;;;;;;7.88;5.35;;;24.20;67.70;;;;;;6101569;29;20459;-83
2021/10/01 12:53:32;;;;;;;;;;;24.20;71.70;;;;;;6102090;29;20110;-83
2021/10/01 12:56:32;;;;;;;7.68;4.70;;;24.00;67.90;;;;;;6116970;29;19977;-85
2021/10/01 12:59:41;;;;;;;10.63;5.23;;;23.80;70.20;;;;;;6117387;29;20030;-84
2021/10/01 13:02:49;;;;;;;5.75;4.72;;;23.60;71.30;;;;;;6116803;29;20100;-84
2021/10/01 13:05:50;;;;;;;7.40;4.75;;;23.60;72.70;;;;;;6117253;29;20085;-84
2021/10/01 13:08:50;;;;;;;5.93;4.77;;;23.60;70.70;;;;;;6116986;29;20031;-83
2021/10/01 13:11:51;;;;;;;7.33;4.43;;;23.50;70.50;;;;;;6116532;29;20034;-85
2021/10/01 13:15:32;;;;;;;4.80;4.30;;;23.60;71.50;;;;;;6100796;29;20054;-83
2021/10/01 13:18:39;;;;;;;6.32;4.78;;;;;;;;;;6117298;29;20199;-87
2021/10/01 13:21:53;;;;;;;6.00;4.72;;;23.80;72.10;;;;;;6132637;29;20019;-82
2021/10/01 13:24:55;;;;;;;9.55;4.53;;;23.80;70.30;;;;;;6131942;29;20027;-81
2021/10/01 13:27:56;;;;;;;7.47;4.85;;;23.80;73.10;;;;;;6099613;29;20724;-82
2021/10/01 13:30:56;;;;;;;5.67;4.50;;;23.70;71.70;;;;;;6116318;29;20027;-82
2021/10/01 13:33:58;;;;;;;5.97;4.90;;;23.60;71.80;;;;;;6116418;29;20469;-83
2021/10/01 13:36:59;;;;;;;4.97;4.30;;;23.60;74.40;;;;;;6101078;29;20066;-81
2021/10/01 13:39:59;;;;;;;6.77;4.10;;;23.60;73.30;;;;;;6116134;29;20031;-81
2021/10/01 13:43:00;;;;;;;5.83;4.50;;;23.70;74.80;;;;;;6101107;29;20030;-83
2021/10/01 13:46:01;;;;;;;5.20;4.22;;;23.60;74.70;;;;;;6116080;29;20027;-83
2021/10/01 13:49:02;;;;;;;7.43;4.77;;;23.40;88.50;;;;;;6116407;29;20038;-82
2021/10/01 13:52:02;;;;;;;6.93;4.40;;;23.30;74.00;;;;;;6116393;29;20031;-83
2021/10/01 13:55:04;;;;;;;8.38;4.18;;;23.30;74.90;;;;;;6115917;29;20061;-82
2021/10/01 13:58:05;;;;;;;8.40;4.82;;;23.20;74.70;;;;;;6116041;29;20047;-81
2021/10/01 14:01:06;;;;;;;5.50;4.63;;;23.20;74.90;;;;;;6130864;29;20055;-83
2021/10/01 14:04:06;;;;;;;9.02;4.45;;;23.20;75.90;;;;;;6116062;29;20031;-83
2021/10/01 14:07:07;;;;;;;5.45;4.20;;;23.00;75.80;;;;;;6100415;29;20078;-82
2021/10/01 14:10:10;;;;;;;7.85;4.65;;;23.00;76.10;;;;;;6115696;29;20032;-83
2021/10/01 14:13:13;;;;;;;4.97;4.07;;;22.60;95.20;;;;;;6115777;29;20036;-82
2021/10/01 14:16:14;;;;;;;5.00;4.30;;;22.80;95.40;;;;;;6116514;29;20039;-83
2021/10/01 14:19:14;;;;;;;7.72;4.28;;;22.80;96.00;;;;;;6115343;29;20456;-84
2021/10/01 14:22:15;;;;;;;5.20;4.20;;;22.80;92.60;;;;;;6115744;29;20057;-82
2021/10/01 14:25:16;;;;;;;5.03;4.40;;;22.60;93.70;;;;;;6115396;29;20122;-82
2021/10/01 14:28:17;;;;;;;7.93;4.50;;;;;;;;;;6115558;29;20027;-83
2021/10/01 14:31:18;;;;;;;7.22;4.35;;;;;;;;;;6115555;29;20031;-83
2021/10/01 14:34:19;;;;;;;7.28;4.82;;;;;;;;;;6114890;29;20462;-82
2021/10/01 14:37:20;;;;;;;7.25;4.40;;;22.50;96.20;;;;;;6115184;29;20039;-82
2021/10/01 14:40:21;;;;;;;10.55;5.20;;;;;;;;;;6099146;29;20465;-82
2021/10/01 14:43:22;;;;;;;8.77;5.38;;;;;;;;;;6115191;29;20475;-84
2021/10/01 14:46:24;;;;;;;5.40;4.40;;;;;;;;;;6131099;29;20035;-83
2021/10/01 14:49:25;;;;;;;5.05;4.30;;;22.70;84.80;;;;;;6114691;28;20055;-82
2021/10/01 14:52:26;;;;;;;7.45;4.40;;;22.70;90.70;;;;;;6114381;29;20037;-82
2021/10/01 14:55:26;;;;;;;4.97;4.47;;;22.60;78.90;;;;;;6114789;29;20095;-83
2021/10/01 14:58:27;;;;;;;7.43;4.25;;;22.50;78.70;;;;;;6114696;29;20031;-81
2021/10/01 15:01:27;;;;;;;6.05;4.90;;;22.50;79.00;;;;;;6114406;29;20078;-82
2021/10/01 15:04:28;;;;;;;6.68;4.43;;;22.40;80.40;;;;;;6114890;29;20039;-81
2021/10/01 15:07:29;;;;;;;7.00;4.63;;;22.30;81.30;;;;;;6114062;29;20042;-82
2021/10/01 15:10:29;;;;;;;4.55;4.00;;;22.30;81.50;;;;;;6098622;29;20121;-82
2021/10/01 15:13:30;;;;;;;8.38;4.22;;;22.20;81.00;;;;;;6114361;29;20019;-82
2021/10/01 15:16:31;;;;;;;7.18;4.13;;;22.20;82.10;;;;;;6114370;29;20090;-83
2021/10/01 15:19:31;;;;;;;5.78;4.75;;;22.00;82.20;;;;;;6114541;29;20444;-83
2021/10/01 15:22:32;;;;;;;4.80;4.32;;;22.10;82.00;;;;;;6098417;29;20042;-82
2021/10/01 15:25:33;;;;;;;5.55;4.82;;;21.80;83.20;;;;;;6113801;29;20059;-82
2021/10/01 15:28:33;;;;;;;5.22;4.22;;;21.70;82.30;;;;;;6113888;29;20106;-82
2021/10/01 15:31:34;;;;;;;8.55;4.88;;;21.60;82.60;;;;;;6130010;29;20119;-82
2021/10/01 15:34:34;;;;;;;7.25;4.75;;;21.50;84.90;;;;;;6114134;29;20114;-82
2021/10/01 15:37:35;;;;;;;8.18;5.28;;;21.50;84.60;;;;;;6098135;29;20195;-83
2021/10/01 15:40:39;;;;;;;6.30;4.75;;;21.50;85.10;;;;;;6129428;29;20023;-82
2021/10/01 15:43:39;;;;;;;7.50;5.35;;;21.30;85.50;;;;;;6114756;29;20077;-82
2021/10/01 15:46:40;;;;;;;6.13;5.00;;;21.20;85.60;;;;;;6098214;29;20039;-81
2021/10/01 15:49:41;;;;;;;7.65;4.75;;;21.20;83.50;;;;;;6113487;29;20035;-83
2021/10/01 15:52:43;;;;;;;10.48;6.10;;;21.30;95.10;;;;;;6113643;29;20509;-83
2021/10/01 15:55:43;;;;;;;;;;;21.10;85.80;;;;;;6113892;29;20425;-83
2021/10/01 15:58:44;;;;;;;5.88;4.75;;;21.10;84.40;;;;;;6113674;29;19911;-83
2021/10/01 16:01:44;;;;;;;11.50;5.25;;;21.00;84.70;;;;;;6098055;28;20222;-83
2021/10/01 16:04:45;;;;;;;5.95;5.25;;;20.90;85.50;;;;;;6097814;29;20031;-84
2021/10/01 16:07:46;;;;;;;7.93;4.78;;;20.70;89.00;;;;;;6113141;29;20439;-83
2021/10/01 16:10:46;;;;;;;7.28;5.18;;;20.40;90.10;;;;;;6113452;29;20031;-81
2021/10/01 16:13:47;;;;;;;8.75;5.07;;;20.10;90.70;;;;;;6113505;29;20051;-82
2021/10/01 16:16:47;;;;;;;7.13;4.88;;;19.80;91.50;;;;;;6112913;29;20133;-83
2021/10/01 16:19:51;;;;;;;6.55;5.50;;;19.60;92.20;;;;;;6097762;29;20043;-83
2021/10/01 16:22:51;;;;;;;10.32;5.38;;;19.30;92.40;;;;;;6113646;29;20153;-82
2021/10/01 16:25:52;;;;;;;11.15;5.55;;;19.10;93.10;;;;;;6113280;29;20351;-81
2021/10/01 16:28:53;;;;;;;6.80;5.63;;;18.80;94.10;;;;;;6112655;29;20046;-84
2021/10/01 16:31:54;;;;;;;9.88;6.28;;;18.80;95.20;;;;;;6097794;29;20024;-83
2021/10/01 16:34:54;;;;;;;21.05;7.32;;;18.50;96.10;;;;;;6113282;29;20019;-82
2021/10/01 16:37:55;;;;;;;13.25;8.18;;;18.40;97.20;;;;;;6097829;29;20134;-85
2021/10/01 16:40:56;;;;;;;12.35;8.10;;;18.20;98.50;;;;;;6097665;29;20134;-83
2021/10/01 16:43:56;;;;;;;15.10;9.85;;;18.10;99.90;;;;;;6113537;29;20031;-82
2021/10/01 16:46:57;;;;;;;16.55;11.25;;;17.90;99.90;;;;;;6113262;29;20118;-83
2021/10/01 16:49:59;;;;;;;20.48;12.45;;;17.80;99.90;;;;;;6097397;29;20540;-81
2021/10/01 16:53:00;;;;;;;19.85;12.20;;;17.60;99.90;;;;;;6112856;29;20090;-81
2021/10/01 16:56:00;;;;;;;18.57;11.10;;;17.50;99.90;;;;;;6114949;29;20073;-83
2021/10/01 16:59:27;;;;;;;22.25;13.00;;;17.30;99.90;;;;;;6094955;29;20035;-83
2021/10/01 17:02:28;;;;;;;21.48;12.02;;;18.90;99.90;;;;;;6118522;29;20059;-82
2021/10/01 17:05:29;;;;;;;19.98;12.23;;;16.90;99.90;;;;;;6113047;29;20031;-83
2021/10/01 17:08:29;;;;;;;18.75;11.63;;;17.00;99.90;;;;;;6113338;29;20079;-83
2021/10/01 17:11:30;;;;;;;17.55;11.35;;;16.90;99.90;;;;;;6095671;29;20031;-84
2021/10/01 17:14:34;;;;;;;22.40;13.88;;;16.80;99.90;;;;;;6131819;29;20015;-84
2021/10/01 17:17:34;;;;;;;31.60;17.95;;;16.70;99.90;;;;;;6101321;29;20031;-86
2021/10/01 17:20:35;;;;;;;28.38;17.08;;;16.60;99.90;;;;;;6117270;29;20469;-85
2021/10/01 17:23:36;;;;;;;36.40;21.95;;;16.40;99.90;;;;;;6114329;29;20024;-85
2021/10/01 17:26:37;;;;;;;26.10;16.35;;;16.30;99.90;;;;;;6104240;29;20110;-83
2021/10/01 17:29:37;;;;;;;21.00;14.27;;;16.30;99.90;;;;;;6100764;29;20220;-83
2021/10/01 17:32:38;;;;;;;23.70;15.35;;;16.10;99.90;;;;;;6115317;29;20043;-82
2021/10/01 17:35:39;;;;;;;26.25;17.67;;;16.10;99.90;;;;;;6114794;29;20047;-82
2021/10/01 17:38:40;;;;;;;27.15;17.63;;;16.10;99.90;;;;;;6099267;29;20019;-85
2021/10/01 17:41:41;;;;;;;24.67;16.43;;;16.10;99.90;;;;;;6112716;29;20482;-82
2021/10/01 17:44:42;;;;;;;16.60;10.63;;;;;;;;;;6116635;29;20040;-84
2021/10/01 17:47:42;;;;;;;12.93;8.20;;;15.80;99.90;;;;;;6115803;29;20037;-89
2021/10/01 17:50:44;;;;;;;9.50;6.70;;;;;;;;;;6115232;29;20039;-83